createdAt,value
2019-01-18T00:01:48.858Z,-11.80
2019-01-18T00:04:18.738Z,-11.80
2019-01-18T00:06:48.636Z,-11.90
2019-01-18T00:09:19.032Z,-11.90
2019-01-18T00:11:49.355Z,-12.00
2019-01-18T00:14:19.216Z,-12.10
2019-01-18T00:16:49.480Z,-12.00
2019-01-18T00:19:19.410Z,-12.10
2019-01-18T00:21:49.313Z,-12.10
2019-01-18T00:24:19.329Z,-12.00
2019-01-18T00:26:49.485Z,-12.00
2019-01-18T00:29:19.329Z,-12.10
2019-01-18T00:31:49.684Z,-12.10
2019-01-18T00:34:19.604Z,-12.10
2019-01-18T00:36:49.469Z,-12.10
2019-01-18T00:39:19.738Z,-12.00
2019-01-18T00:41:49.979Z,-11.90
2019-01-18T00:44:19.996Z,-11.90
2019-01-18T00:46:49.897Z,-11.90
2019-01-18T00:49:19.794Z,-11.90
2019-01-18T00:51:49.994Z,-11.80
2019-01-18T00:54:19.920Z,-11.80
2019-01-18T00:56:50.176Z,-11.70
2019-01-18T00:59:20.487Z,-11.70
2019-01-18T01:01:50.479Z,-11.60
2019-01-18T01:04:20.334Z,-11.70
2019-01-18T01:06:50.328Z,-11.70
2019-01-18T01:09:20.245Z,-11.70
2019-01-18T01:11:50.314Z,-11.90
2019-01-18T01:14:20.314Z,-11.90
2019-01-18T01:16:50.267Z,-11.70
2019-01-18T01:19:20.661Z,-11.70
2019-01-18T01:21:50.624Z,-11.70
2019-01-18T01:24:20.589Z,-11.60
2019-01-18T01:26:50.994Z,-11.60
2019-01-18T01:29:21.013Z,-11.50
2019-01-18T01:31:51.013Z,-11.30
2019-01-18T01:34:21.256Z,-11.10
2019-01-18T01:36:51.168Z,-11.20
2019-01-18T01:39:21.149Z,-11.10
2019-01-18T01:41:51.407Z,-11.00
2019-01-18T01:44:21.728Z,-10.90
2019-01-18T01:46:51.734Z,-10.80
2019-01-18T01:49:21.883Z,-10.80
2019-01-18T01:51:51.910Z,-10.80
2019-01-18T01:54:21.802Z,-10.80
2019-01-18T01:56:52.159Z,-10.80
2019-01-18T01:59:22.359Z,-10.70
2019-01-18T02:01:52.212Z,-10.60
2019-01-18T02:04:22.367Z,-10.70
2019-01-18T02:06:52.297Z,-11.10
2019-01-18T02:09:22.192Z,-11.10
2019-01-18T02:11:52.351Z,-11.20
2019-01-18T02:14:22.748Z,-11.10
2019-01-18T02:16:52.621Z,-11.20
2019-01-18T02:19:23.010Z,-11.00
2019-01-18T02:21:52.953Z,-10.90
2019-01-18T02:24:22.903Z,-10.80
2019-01-18T02:26:53.178Z,-10.90
2019-01-18T02:29:23.404Z,-10.90
2019-01-18T02:31:53.300Z,-10.90
2019-01-18T02:34:23.546Z,-10.90
2019-01-18T02:36:53.778Z,-10.90
2019-01-18T02:39:23.673Z,-11.00
2019-01-18T02:41:53.893Z,-11.10
2019-01-18T02:44:24.139Z,-11.10
2019-01-18T02:46:54.045Z,-11.20
2019-01-18T02:49:24.144Z,-11.20
2019-01-18T02:51:54.030Z,-11.10
2019-01-18T02:54:23.937Z,-11.10
2019-01-18T02:56:54.325Z,-11.00
2019-01-18T02:59:24.639Z,-11.10
2019-01-18T03:01:54.528Z,-11.00
2019-01-18T03:04:28.363Z,-10.90
2019-01-18T03:06:58.300Z,-11.00
2019-01-18T03:09:28.206Z,-10.90
2019-01-18T03:11:58.519Z,-10.90
2019-01-18T03:14:28.693Z,-10.90
2019-01-18T03:16:58.818Z,-10.90
2019-01-18T03:19:29.097Z,-11.00
2019-01-18T03:21:59.180Z,-11.00
2019-01-18T03:24:29.096Z,-11.10
2019-01-18T03:26:59.447Z,-11.00
2019-01-18T03:29:29.736Z,-11.10
2019-01-18T03:31:59.601Z,-11.30
2019-01-18T03:34:30.011Z,-11.50
2019-01-18T03:36:59.920Z,-11.60
2019-01-18T03:39:29.815Z,-11.70
2019-01-18T03:42:00.179Z,-11.70
2019-01-18T03:44:30.419Z,-11.80
2019-01-18T03:47:00.240Z,-11.70
2019-01-18T03:49:30.379Z,-11.70
2019-01-18T03:52:00.279Z,-11.70
2019-01-18T03:54:30.131Z,-11.80
2019-01-18T03:57:00.381Z,-11.90
2019-01-18T03:59:30.556Z,-11.90
2019-01-18T04:02:00.426Z,-11.90
2019-01-18T04:04:30.738Z,-11.70
2019-01-18T04:07:00.823Z,-11.70
2019-01-18T04:09:30.713Z,-11.70
2019-01-18T04:12:01.408Z,-11.50
2019-01-18T04:14:31.575Z,-11.70
2019-01-18T04:17:01.465Z,-11.60
2019-01-18T04:19:31.477Z,-11.50
2019-01-18T04:22:01.369Z,-11.60
2019-01-18T04:24:31.207Z,-11.70
2019-01-18T04:27:01.510Z,-11.80
2019-01-18T04:29:31.736Z,-11.90
2019-01-18T04:32:01.623Z,-11.90
2019-01-18T04:34:31.879Z,-12.00
2019-01-18T04:37:01.715Z,-11.90
2019-01-18T04:39:31.630Z,-11.90
2019-01-18T04:42:01.691Z,-11.90
2019-01-18T04:44:31.842Z,-12.00
2019-01-18T04:47:01.734Z,-11.80
2019-01-18T04:49:31.651Z,-11.80
2019-01-18T04:52:01.990Z,-11.80
2019-01-18T04:54:31.872Z,-11.80
2019-01-18T04:57:01.765Z,-11.70
2019-01-18T04:59:31.960Z,-11.70
2019-01-18T05:02:02.260Z,-11.60
2019-01-18T05:04:32.321Z,-11.70
2019-01-18T05:07:02.481Z,-11.70
2019-01-18T05:09:32.383Z,-11.70
2019-01-18T05:12:02.330Z,-11.70
2019-01-18T05:14:32.487Z,-11.70
2019-01-18T05:17:02.804Z,-11.70
2019-01-18T05:19:32.707Z,-11.70
2019-01-18T05:22:03.221Z,-11.80
2019-01-18T05:24:33.129Z,-12.00
2019-01-18T05:27:03.065Z,-11.90
2019-01-18T05:29:33.053Z,-11.90
2019-01-18T05:32:03.343Z,-11.80
2019-01-18T05:34:33.274Z,-11.80
2019-01-18T05:37:03.263Z,-11.70
2019-01-18T05:39:33.103Z,-11.60
2019-01-18T05:42:03.353Z,-11.40
2019-01-18T05:44:33.384Z,-11.30
2019-01-18T05:47:03.676Z,-11.40
2019-01-18T05:49:33.609Z,-11.50
2019-01-18T05:52:03.867Z,-11.60
2019-01-18T05:54:33.839Z,-11.50
2019-01-18T05:57:03.780Z,-11.60
2019-01-18T05:59:34.132Z,-11.60
2019-01-18T06:02:04.415Z,-11.50
2019-01-18T06:04:34.376Z,-11.50
2019-01-18T06:07:04.341Z,-11.40
2019-01-18T06:09:34.262Z,-11.40
2019-01-18T06:12:04.220Z,-11.50
2019-01-18T06:14:34.315Z,-11.60
2019-01-18T06:17:04.634Z,-11.80
2019-01-18T06:19:34.585Z,-11.80
2019-01-18T06:22:05.314Z,-11.80
2019-01-18T06:24:35.374Z,-11.70
2019-01-18T06:27:05.827Z,-11.60
2019-01-18T06:29:35.957Z,-11.50
2019-01-18T06:32:06.351Z,-11.60
2019-01-18T06:34:36.315Z,-11.40
2019-01-18T06:37:06.433Z,-11.40
2019-01-18T06:39:36.323Z,-11.40
2019-01-18T06:42:06.369Z,-11.40
2019-01-18T06:44:36.526Z,-11.40
2019-01-18T06:47:06.812Z,-11.40
2019-01-18T06:49:37.439Z,-11.50
2019-01-18T06:52:07.295Z,-11.50
2019-01-18T06:54:37.204Z,-11.50
2019-01-18T06:57:07.493Z,-11.50
2019-01-18T06:59:37.374Z,-11.70
2019-01-18T07:02:08.463Z,-11.70
2019-01-18T07:04:41.487Z,-11.90
2019-01-18T07:07:10.230Z,-11.90
2019-01-18T07:09:40.164Z,-11.80
2019-01-18T07:12:10.118Z,-11.80
2019-01-18T07:14:40.376Z,-11.80
2019-01-18T07:17:10.530Z,-11.80
2019-01-18T07:19:40.458Z,-11.80
2019-01-18T07:22:10.773Z,-11.60
2019-01-18T07:24:40.685Z,-11.40
2019-01-18T07:27:10.651Z,-11.50
2019-01-18T07:29:40.911Z,-11.40
2019-01-18T07:32:11.102Z,-11.50
2019-01-18T07:34:41.180Z,-11.60
2019-01-18T07:37:11.123Z,-11.40
2019-01-18T07:39:41.045Z,-11.20
2019-01-18T07:42:11.419Z,-11.10
2019-01-18T07:44:41.357Z,-11.00
2019-01-18T07:47:11.617Z,-10.90
2019-01-18T07:49:41.964Z,-10.80
2019-01-18T07:52:11.822Z,-10.80
2019-01-18T07:54:41.854Z,-11.20
2019-01-18T07:57:12.246Z,-11.30
2019-01-18T07:59:42.127Z,-11.50
2019-01-18T08:02:12.263Z,-11.60
2019-01-18T08:04:42.195Z,-11.60
2019-01-18T08:07:12.182Z,-11.60
2019-01-18T08:09:42.435Z,-11.60
2019-01-18T08:12:12.410Z,-11.50
2019-01-18T08:14:42.309Z,-11.40
2019-01-18T08:17:12.568Z,-11.20
2019-01-18T08:19:42.918Z,-11.10
2019-01-18T08:22:12.759Z,-11.00
2019-01-18T08:24:43.046Z,-10.90
2019-01-18T08:27:13.137Z,-10.70
2019-01-18T08:29:43.102Z,-10.60
2019-01-18T08:32:13.404Z,-10.40
2019-01-18T08:34:43.917Z,-10.30
2019-01-18T08:37:14.149Z,-10.20
2019-01-18T08:39:43.995Z,-10.10
2019-01-18T08:42:13.938Z,-10.10
2019-01-18T08:44:44.211Z,-10.20
2019-01-18T08:47:14.108Z,-10.30
2019-01-18T08:49:44.092Z,-10.20
2019-01-18T08:52:14.521Z,-10.00
2019-01-18T08:54:44.455Z,-10.00
2019-01-18T08:57:14.386Z,-10.00
2019-01-18T08:59:44.530Z,-9.90
2019-01-18T09:02:14.405Z,-9.70
2019-01-18T09:04:44.643Z,-9.70
2019-01-18T09:07:15.176Z,-9.70
2019-01-18T09:09:45.068Z,-9.30
2019-01-18T09:12:15.113Z,-9.40
2019-01-18T09:14:45.335Z,-9.50
2019-01-18T09:17:15.215Z,-9.50
2019-01-18T09:19:45.667Z,-9.40
2019-01-18T09:22:15.910Z,-9.60
2019-01-18T09:24:45.805Z,-9.50
2019-01-18T09:27:15.680Z,-9.70
2019-01-18T09:29:46.080Z,-9.60
2019-01-18T09:32:16.101Z,-9.50
2019-01-18T09:34:46.300Z,-9.50
2019-01-18T09:37:16.634Z,-9.50
2019-01-18T09:39:46.517Z,-9.50
2019-01-18T09:42:16.429Z,-9.30
2019-01-18T09:44:46.694Z,-9.20
2019-01-18T09:47:16.602Z,-9.10
2019-01-18T09:49:46.712Z,-9.10
2019-01-18T09:52:17.047Z,-9.20
2019-01-18T09:54:46.945Z,-9.20
2019-01-18T09:57:16.897Z,-9.20
2019-01-18T09:59:47.291Z,-9.20
2019-01-18T10:02:17.173Z,-8.90
2019-01-18T10:04:47.395Z,-8.60
2019-01-18T10:07:17.562Z,-8.50
2019-01-18T10:09:47.418Z,-8.60
2019-01-18T10:12:17.319Z,-8.80
2019-01-18T10:14:47.510Z,-9.10
2019-01-18T10:17:17.392Z,-9.10
2019-01-18T10:19:47.562Z,-9.10
2019-01-18T10:22:17.452Z,-9.00
2019-01-18T10:24:47.351Z,-9.00
2019-01-18T10:27:23.783Z,-8.80
2019-01-18T10:29:49.264Z,-8.80
2019-01-18T10:32:19.235Z,-8.70
2019-01-18T10:34:49.408Z,-8.70
2019-01-18T10:37:19.338Z,-8.80
2019-01-18T10:39:49.652Z,-8.70
2019-01-18T10:42:19.535Z,-8.50
2019-01-18T10:44:49.418Z,-8.30
2019-01-18T10:47:19.704Z,-8.20
2019-01-18T10:49:49.819Z,-7.90
2019-01-18T10:52:19.687Z,-7.70
2019-01-18T10:54:49.596Z,-7.30
2019-01-18T10:57:20.174Z,-6.90
2019-01-18T10:59:50.040Z,-6.90
2019-01-18T11:02:20.022Z,-6.80
2019-01-18T11:04:50.316Z,-6.50
2019-01-18T11:07:20.207Z,-6.10
2019-01-18T11:09:50.072Z,-5.90
2019-01-18T11:12:20.604Z,-5.70
2019-01-18T11:14:50.507Z,-5.60
2019-01-18T11:17:20.444Z,-5.30
2019-01-18T11:19:50.743Z,-5.10
2019-01-18T11:22:20.989Z,-5.30
2019-01-18T11:24:51.131Z,-5.00
2019-01-18T11:27:21.008Z,-4.80
2019-01-18T11:29:50.917Z,-4.60
2019-01-18T11:32:21.144Z,-4.70
2019-01-18T11:34:51.024Z,-4.90
2019-01-18T11:37:21.338Z,-4.90
2019-01-18T11:39:51.626Z,-4.90
2019-01-18T11:42:21.635Z,-4.90
2019-01-18T11:44:51.536Z,-4.70
2019-01-18T11:47:21.785Z,-4.60
2019-01-18T11:49:51.663Z,-4.40
2019-01-18T11:52:21.690Z,-4.30
2019-01-18T11:54:51.923Z,-4.40
2019-01-18T11:57:21.884Z,-4.30
2019-01-18T11:59:51.769Z,-4.20
2019-01-18T12:02:22.277Z,-4.20
2019-01-18T12:04:52.487Z,-4.20
2019-01-18T12:07:22.765Z,-4.30
2019-01-18T12:09:52.960Z,-4.20
2019-01-18T12:12:22.901Z,-4.20
2019-01-18T12:14:52.829Z,-4.00
2019-01-18T12:17:23.090Z,-3.80
2019-01-18T12:19:53.038Z,-3.50
2019-01-18T12:22:23.498Z,-3.40
2019-01-18T12:24:53.766Z,-3.30
2019-01-18T12:27:23.688Z,-3.20
2019-01-18T12:29:53.627Z,-3.00
2019-01-18T12:32:28.726Z,-3.00
2019-01-18T12:34:55.546Z,-3.00
2019-01-18T12:37:26.009Z,-3.00
2019-01-18T12:39:55.831Z,-2.90
2019-01-18T12:42:25.826Z,-3.10
2019-01-18T12:44:56.084Z,-2.90
2019-01-18T12:47:25.973Z,-2.80
2019-01-18T12:49:55.893Z,-2.80
2019-01-18T12:52:26.426Z,-2.60
2019-01-18T12:54:56.311Z,-2.50
2019-01-18T12:57:26.245Z,-2.40
2019-01-18T12:59:56.490Z,-2.20
2019-01-18T13:02:26.516Z,-1.00
2019-01-18T13:04:56.412Z,0.70
2019-01-18T13:07:27.046Z,2.20
2019-01-18T13:09:57.010Z,4.10
2019-01-18T13:12:26.964Z,5.60
2019-01-18T13:14:57.361Z,4.30
2019-01-18T13:17:27.668Z,3.80
2019-01-18T13:19:57.732Z,5.20
2019-01-18T13:22:28.501Z,6.00
2019-01-18T13:24:58.365Z,6.20
2019-01-18T13:27:28.322Z,6.00
2019-01-18T13:29:58.365Z,5.70
2019-01-18T13:32:28.253Z,5.90
2019-01-18T13:34:58.219Z,5.80
2019-01-18T13:37:28.685Z,5.20
2019-01-18T13:39:58.588Z,5.00
2019-01-18T13:42:30.060Z,4.60
2019-01-18T13:44:59.922Z,4.50
2019-01-18T13:47:30.057Z,4.60
2019-01-18T13:50:00.154Z,4.70
2019-01-18T13:52:30.552Z,5.00
2019-01-18T13:55:00.739Z,4.90
2019-01-18T13:57:30.986Z,4.60
2019-01-18T14:00:00.881Z,4.90
2019-01-18T14:02:30.778Z,4.50
2019-01-18T14:05:01.053Z,4.00
2019-01-18T14:07:31.205Z,2.50
2019-01-18T14:10:01.044Z,0.50
2019-01-18T14:12:31.386Z,-1.20
2019-01-18T14:15:01.583Z,-2.60
2019-01-18T14:17:31.472Z,-3.00
2019-01-18T14:20:01.766Z,-3.10
2019-01-18T14:22:32.053Z,-3.10
2019-01-18T14:25:02.210Z,-3.20
2019-01-18T14:27:32.111Z,-3.10
2019-01-18T14:30:01.979Z,-2.80
2019-01-18T14:32:32.058Z,-2.70
2019-01-18T14:35:01.955Z,-3.30
2019-01-18T14:37:32.002Z,-4.00
2019-01-18T14:40:02.004Z,-4.40
2019-01-18T14:42:31.993Z,-4.60
2019-01-18T14:45:02.026Z,-5.00
2019-01-18T14:47:32.385Z,-5.10
2019-01-18T14:50:02.296Z,-5.50
2019-01-18T14:52:32.481Z,-5.40
2019-01-18T14:55:02.744Z,-5.20
2019-01-18T14:57:32.675Z,-5.30
2019-01-18T15:00:02.504Z,-5.40
2019-01-18T15:02:32.537Z,-5.80
2019-01-18T15:05:02.452Z,-5.90
2019-01-18T15:07:32.724Z,-6.10
2019-01-18T15:10:05.088Z,-6.20
2019-01-18T15:12:34.612Z,-6.40
2019-01-18T15:15:04.917Z,-6.50
2019-01-18T15:17:34.766Z,-6.70
2019-01-18T15:20:06.086Z,-6.70
2019-01-18T15:22:36.338Z,-6.80
2019-01-18T15:25:07.696Z,-7.00
2019-01-18T15:27:39.965Z,-6.90
2019-01-18T15:30:12.393Z,-7.10
2019-01-18T15:32:42.463Z,-7.30
2019-01-18T15:35:15.012Z,-7.40
2019-01-18T15:37:45.534Z,-7.50
2019-01-18T15:40:19.502Z,-7.60
2019-01-18T15:42:49.531Z,-7.60
2019-01-18T15:45:19.638Z,-7.60
2019-01-18T15:47:49.600Z,-7.60
2019-01-18T15:50:22.569Z,-7.50
2019-01-18T15:52:53.026Z,-7.50
2019-01-18T15:55:23.595Z,-7.70
2019-01-18T15:57:53.557Z,-7.80
2019-01-18T16:00:29.074Z,-7.90
2019-01-18T16:02:59.756Z,-7.80
2019-01-18T16:05:29.622Z,-7.90
2019-01-18T16:08:00.579Z,-7.90
2019-01-18T16:10:30.804Z,-7.90
2019-01-18T16:13:00.736Z,-7.90
2019-01-18T16:15:40.774Z,-7.90
2019-01-18T16:18:13.045Z,-7.90
2019-01-18T16:20:43.042Z,-7.90
2019-01-18T16:23:13.412Z,-7.90
2019-01-18T16:25:43.307Z,-8.10
2019-01-18T16:28:13.552Z,-8.20
2019-01-18T16:30:43.623Z,-8.20
2019-01-18T16:33:13.534Z,-8.30
2019-01-18T16:35:43.709Z,-8.30
2019-01-18T16:38:14.278Z,-8.30
2019-01-18T16:40:44.336Z,-8.40
2019-01-18T16:43:18.067Z,-8.40
2019-01-18T16:45:48.140Z,-8.40
2019-01-18T16:48:18.126Z,-8.50
2019-01-18T16:50:48.042Z,-8.30
2019-01-18T16:53:18.839Z,-8.40
2019-01-18T16:55:48.756Z,-8.40
2019-01-18T16:58:18.833Z,-8.40
2019-01-18T17:00:51.247Z,-8.40
2019-01-18T17:03:21.392Z,-8.40
2019-01-18T17:05:51.303Z,-8.40
2019-01-18T17:08:22.123Z,-8.30
2019-01-18T17:10:52.013Z,-8.30
2019-01-18T17:13:22.534Z,-8.30
2019-01-18T17:15:52.487Z,-8.40
2019-01-18T17:18:24.428Z,-8.50
2019-01-18T17:20:54.693Z,-8.60
2019-01-18T17:23:25.108Z,-8.70
2019-01-18T17:25:55.273Z,-8.70
2019-01-18T17:28:25.321Z,-8.70
2019-01-18T17:30:55.195Z,-8.80
2019-01-18T17:33:25.474Z,-8.90
2019-01-18T17:36:29.193Z,-9.00
2019-01-18T17:39:28.062Z,-9.30
2019-01-18T17:42:13.556Z,-9.30
2019-01-18T17:45:17.254Z,-9.30
2019-01-18T17:48:19.202Z,-9.20
2019-01-18T17:51:35.327Z,-9.10
2019-01-18T17:54:10.736Z,-9.20
2019-01-18T17:57:21.654Z,-9.20
2019-01-18T18:00:21.302Z,-9.10
2019-01-18T18:03:43.500Z,-9.20
2019-01-18T18:06:43.932Z,-9.20
2019-01-18T18:09:22.884Z,-9.10
2019-01-18T18:12:18.962Z,-9.10
2019-01-18T18:15:38.888Z,-9.00
2019-01-18T18:18:48.386Z,-8.90
2019-01-18T18:21:55.622Z,-9.10
2019-01-18T18:24:57.430Z,-9.10
2019-01-18T18:28:20.347Z,-9.10
2019-01-18T18:31:28.308Z,-9.10
2019-01-18T18:34:25.578Z,-9.00
2019-01-18T18:37:14.230Z,-9.30
2019-01-18T18:40:18.794Z,-9.50
2019-01-18T18:43:08.287Z,-9.60
2019-01-18T18:46:40.637Z,-9.50
2019-01-18T18:49:58.851Z,-9.30
2019-01-18T18:52:54.171Z,-9.30
2019-01-18T18:55:55.582Z,-9.30
2019-01-18T18:58:32.547Z,-9.30
2019-01-18T19:01:31.671Z,-9.50
2019-01-18T19:04:37.195Z,-9.50
2019-01-18T19:07:55.757Z,-9.40
2019-01-18T19:10:57.520Z,-9.50
2019-01-18T19:14:10.923Z,-9.60
2019-01-18T19:17:17.604Z,-9.60
2019-01-18T19:20:12.672Z,-9.70
2019-01-18T19:23:15.612Z,-9.70
2019-01-18T19:26:11.267Z,-9.80
2019-01-18T19:29:06.434Z,-9.80
2019-01-18T19:32:15.862Z,-9.90
2019-01-18T19:35:24.193Z,-9.90
2019-01-18T19:38:29.492Z,-10.00
2019-01-18T19:41:15.121Z,-10.20
2019-01-18T19:44:08.098Z,-10.30
2019-01-18T19:47:20.993Z,-10.20
2019-01-18T19:50:45.785Z,-10.20
2019-01-18T19:54:02.325Z,-10.40
2019-01-18T19:57:15.170Z,-10.40
2019-01-18T20:00:25.036Z,-10.40
2019-01-18T20:03:06.003Z,-10.30
2019-01-18T20:06:12.859Z,-10.30
2019-01-18T20:09:41.632Z,-10.40
2019-01-18T20:12:43.498Z,-10.70
2019-01-18T20:15:38.632Z,-10.90
2019-01-18T20:18:32.285Z,-10.70
2019-01-18T20:21:46.634Z,-10.60
2019-01-18T20:24:53.119Z,-10.60
2019-01-18T20:27:51.663Z,-10.70
2019-01-18T20:30:53.399Z,-10.70
2019-01-18T20:34:02.631Z,-10.60
2019-01-18T20:37:03.587Z,-10.50
2019-01-18T20:40:08.765Z,-10.80
2019-01-18T20:43:14.454Z,-10.90
2019-01-18T20:46:25.069Z,-10.90
2019-01-18T20:49:45.009Z,-11.00
2019-01-18T20:52:49.705Z,-11.10
2019-01-18T20:55:54.792Z,-11.00
2019-01-18T20:58:51.409Z,-10.90
2019-01-18T21:02:07.144Z,-10.80
2019-01-18T21:05:18.089Z,-10.80
2019-01-18T21:08:04.824Z,-10.70
2019-01-18T21:11:13.016Z,-10.80
2019-01-18T21:13:55.122Z,-10.80
2019-01-18T21:17:17.918Z,-10.90
2019-01-18T21:20:27.404Z,-11.00
2019-01-18T21:23:28.415Z,-10.90
2019-01-18T21:26:14.963Z,-10.90
2019-01-18T21:29:40.988Z,-11.10
2019-01-18T21:33:09.782Z,-11.20
2019-01-18T21:35:53.756Z,-11.30
2019-01-18T21:38:55.785Z,-11.30
2019-01-18T21:42:09.300Z,-11.30
2019-01-18T21:45:13.080Z,-11.40
2019-01-18T21:48:17.439Z,-11.50
2019-01-18T21:51:25.553Z,-11.40
2019-01-18T21:54:20.524Z,-11.30
2019-01-18T21:57:33.614Z,-11.40
2019-01-18T22:00:48.089Z,-11.40
2019-01-18T22:03:30.792Z,-11.40
2019-01-18T22:06:39.392Z,-11.40
2019-01-18T22:09:46.102Z,-11.30
2019-01-18T22:12:54.183Z,-11.20
2019-01-18T22:15:58.112Z,-11.20
2019-01-18T22:19:08.519Z,-11.20
2019-01-18T22:21:58.134Z,-11.30
2019-01-18T22:25:02.863Z,-11.30
2019-01-18T22:28:20.639Z,-11.30
2019-01-18T22:31:05.604Z,-11.40
2019-01-18T22:33:41.761Z,-11.30
2019-01-18T22:36:37.496Z,-11.40
2019-01-18T22:39:37.709Z,-11.50
2019-01-18T22:42:49.940Z,-11.50
2019-01-18T22:45:38.268Z,-11.50
2019-01-18T22:48:40.312Z,-11.40
2019-01-18T22:51:57.873Z,-11.30
2019-01-18T22:55:06.850Z,-11.30
2019-01-18T22:58:17.676Z,-11.30
2019-01-18T23:01:21.037Z,-11.50
2019-01-18T23:04:31.748Z,-11.60
2019-01-18T23:07:41.173Z,-11.50
2019-01-18T23:11:07.065Z,-11.50
2019-01-18T23:14:27.126Z,-11.60
2019-01-18T23:17:43.060Z,-11.70
2019-01-18T23:20:59.793Z,-11.70
2019-01-18T23:23:56.864Z,-11.70
2019-01-18T23:27:02.614Z,-11.90
2019-01-18T23:30:13.190Z,-11.80
2019-01-18T23:33:17.093Z,-11.70
2019-01-18T23:36:17.222Z,-11.70
2019-01-18T23:39:26.713Z,-11.70
2019-01-18T23:42:54.423Z,-11.70
2019-01-18T23:45:56.430Z,-11.60
2019-01-18T23:48:59.613Z,-11.60
2019-01-18T23:52:09.083Z,-11.60
2019-01-18T23:55:15.571Z,-11.60
2019-01-18T23:58:12.523Z,-11.70
